Home > Products > Valid Products > TAF

000
FTUS44 KMRX 280534
TAFTYS
TAF
KTYS 280534Z 2806/2906 34006KT P6SM OVC035
     FM281300 VRB04KT P6SM SCT050 SCT100
     FM282300 00000KT P6SM SKC=



000
FTUS44 KMRX 280534
TAFCHA
TAF
KCHA 280534Z 2806/2906 34009KT P6SM BKN035
     FM280800 VRB04KT P6SM SKC=



000
FTUS44 KMRX 280534
TAFTRI
TAF
KTRI 280534Z 2806/2906 27008KT 6SM -SN SCT025 OVC035
     FM281600 VRB04KT P6SM SCT050 BKN100
     FM282300 00000KT P6SM SKC=



000
FTUS44 KMRX 280534
TAFCHA
TAF
KCHA 280534Z 2806/2906 34009KT P6SM BKN035
     FM280800 VRB04KT P6SM SKC=



000
FTUS44 KMRX 280534
TAFTYS
TAF
KTYS 280534Z 2806/2906 34006KT P6SM OVC035
     FM281300 VRB04KT P6SM SCT050 SCT100
     FM282300 00000KT P6SM SKC=



000
FTUS44 KMRX 280534
TAFTRI
TAF
KTRI 280534Z 2806/2906 27008KT 6SM -SN SCT025 OVC035
     FM281600 VRB04KT P6SM SCT050 BKN100
     FM282300 00000KT P6SM SKC=



000
FTUS44 KMRX 280320 AAA
TAFCHA
TAF AMD
KCHA 280320Z 2803/2824 32009KT P6SM BKN035
     FM280800 VRB04KT P6SM SKC=



000
FTUS44 KMRX 280320 AAA
TAFCHA
TAF AMD
KCHA 280320Z 2803/2824 32009KT P6SM BKN035
     FM280800 VRB04KT P6SM SKC=



000
FTUS44 KMRX 272327
TAFTYS
TAF
KTYS 272327Z 2800/2824 29009KT P6SM OVC035
     FM280900 34005KT P6SM BKN030
     FM281400 VRB04KT P6SM SCT050=



000
FTUS44 KMRX 272327
TAFTRI
TAF
KTRI 272327Z 2800/2824 27008KT 6SM -SN BKN025 OVC040
     FM280900 VRB03KT P6SM BKN025
     FM281600 24004KT P6SM SCT050=



000
FTUS44 KMRX 272327
TAFCHA
TAF
KCHA 272327Z 2800/2824 32009KT P6SM BKN035
     FM280300 VRB04KT P6SM SKC=



000
FTUS44 KMRX 272327
TAFTYS
TAF
KTYS 272327Z 2800/2824 29009KT P6SM OVC035
     FM280900 34005KT P6SM BKN030
     FM281400 VRB04KT P6SM SCT050=



000
FTUS44 KMRX 272327
TAFCHA
TAF
KCHA 272327Z 2800/2824 32009KT P6SM BKN035
     FM280300 VRB04KT P6SM SKC=



000
FTUS44 KMRX 272327
TAFTRI
TAF
KTRI 272327Z 2800/2824 27008KT 6SM -SN BKN025 OVC040
     FM280900 VRB03KT P6SM BKN025
     FM281600 24004KT P6SM SCT050=



000
FTUS44 KMRX 271732
TAFCHA
TAF
KCHA 271732Z 2718/2818 32010G18KT P6SM BKN035
     FM280000 35005KT P6SM SCT040=



000
FTUS44 KMRX 271732
TAFTYS
TAF
KTYS 271732Z 2718/2818 30010KT P6SM BKN030
     FM272200 33005KT P6SM BKN035
     FM280800 34005KT P6SM SCT250=



000
FTUS44 KMRX 271732
TAFTRI
TAF
KTRI 271732Z 2718/2818 30010KT P6SM BKN030
     FM280000 30007KT P6SM BKN040
     FM281200 25004KT P6SM BKN250=



000
FTUS44 KMRX 271732
TAFTYS
TAF
KTYS 271732Z 2718/2818 30010KT P6SM BKN030
     FM272200 33005KT P6SM BKN035
     FM280800 34005KT P6SM SCT250=



000
FTUS44 KMRX 271732
TAFTRI
TAF
KTRI 271732Z 2718/2818 30010KT P6SM BKN030
     FM280000 30007KT P6SM BKN040
     FM281200 25004KT P6SM BKN250=



000
FTUS44 KMRX 271732
TAFCHA
TAF
KCHA 271732Z 2718/2818 32010G18KT P6SM BKN035
     FM280000 35005KT P6SM SCT040=



000
FTUS44 KMRX 271601 AAB
TAFTYS
TAF AMD
KTYS 271601Z 2716/2812 30010KT P6SM BKN020
      TEMPO 2716/2717 4SM -RA BR BKN015
     FM271700 31010KT P6SM BKN040
     FM280000 34006KT P6SM BKN035=



000
FTUS44 KMRX 271601 AAB
TAFTYS
TAF AMD
KTYS 271601Z 2716/2812 30010KT P6SM BKN020
      TEMPO 2716/2717 4SM -RA BR BKN015
     FM271700 31010KT P6SM BKN040
     FM280000 34006KT P6SM BKN035=



000
FTUS44 KMRX 271530 AAB
TAFTRI
TAF AMD
KTRI 271530Z 2716/2812 29008KT P6SM -SN OVC025
     FM271800 28010KT P6SM BKN035
     FM280000 30007KT P6SM SCT040=



000
FTUS44 KMRX 271530 AAB
TAFTRI
TAF AMD
KTRI 271530Z 2716/2812 29008KT P6SM -SN OVC025
     FM271800 28010KT P6SM BKN035
     FM280000 30007KT P6SM SCT040=



000
FTUS44 KMRX 271519 AAA
TAFTYS
TAF AMD
KTYS 271519Z 2715/2812 30010KT P6SM BKN020
     FM271700 31010KT P6SM BKN040
     FM280000 34006KT P6SM BKN035=



000
FTUS44 KMRX 271519 AAA
TAFTYS
TAF AMD
KTYS 271519Z 2715/2812 30010KT P6SM BKN020
     FM271700 31010KT P6SM BKN040
     FM280000 34006KT P6SM BKN035=



000
FTUS44 KMRX 271350 AAA
TAFTRI
TAF AMD
KTRI 271350Z 2714/2812 28005KT P6SM -SN OVC010
      TEMPO 2714/2715 VRB02KT 4SM -SN BR BKN006
     FM271600 28010G17KT P6SM BKN035
     FM280000 30007KT P6SM SCT040=



000
FTUS44 KMRX 271350 AAA
TAFTRI
TAF AMD
KTRI 271350Z 2714/2812 28005KT P6SM -SN OVC010
      TEMPO 2714/2715 VRB02KT 4SM -SN BR BKN006
     FM271600 28010G17KT P6SM BKN035
     FM280000 30007KT P6SM SCT040=



000
FTUS44 KMRX 271128
TAFTYS
TAF
KTYS 271128Z 2712/2812 26009KT P6SM SCT025 BKN040
      TEMPO 2712/2714 6SM -SN BR BKN025
     FM271400 31010G18KT P6SM BKN040
     FM280000 34006KT P6SM BKN035=



000
FTUS44 KMRX 271128
TAFTRI
TAF
KTRI 271128Z 2712/2812 28005KT P6SM -SN OVC006
      TEMPO 2712/2714 VRB02KT 4SM -SN BR BKN006
     FM271600 28010G17KT P6SM BKN035
     FM280000 30007KT P6SM SCT040=



000
FTUS44 KMRX 271128
TAFCHA
TAF
KCHA 271128Z 2712/2812 28010KT P6SM BKN035
     FM271400 32010G18KT P6SM SCT040
     FM280000 34006KT P6SM SCT040=



000
FTUS44 KMRX 271128
TAFTYS
TAF
KTYS 271128Z 2712/2812 26009KT P6SM SCT025 BKN040
      TEMPO 2712/2714 6SM -SN BR BKN025
     FM271400 31010G18KT P6SM BKN040
     FM280000 34006KT P6SM BKN035=



000
FTUS44 KMRX 271128
TAFCHA
TAF
KCHA 271128Z 2712/2812 28010KT P6SM BKN035
     FM271400 32010G18KT P6SM SCT040
     FM280000 34006KT P6SM SCT040=



000
FTUS44 KMRX 271128
TAFTRI
TAF
KTRI 271128Z 2712/2812 28005KT P6SM -SN OVC006
      TEMPO 2712/2714 VRB02KT 4SM -SN BR BKN006
     FM271600 28010G17KT P6SM BKN035
     FM280000 30007KT P6SM SCT040=



000
FTUS44 KMRX 271031 AAA
TAFTRI
TAF AMD
KTRI 271031Z 2711/2806 00000KT 3SM -SN BR OVC005
     FM271200 28007KT 5SM -SN BR BKN005 OVC010
     FM271500 28010G17KT P6SM BKN035
     FM280000 28007KT P6SM BKN035=



000
FTUS44 KMRX 271031 AAA
TAFTRI
TAF AMD
KTRI 271031Z 2711/2806 00000KT 3SM -SN BR OVC005
     FM271200 28007KT 5SM -SN BR BKN005 OVC010
     FM271500 28010G17KT P6SM BKN035
     FM280000 28007KT P6SM BKN035=



000
FTUS44 KMRX 270606 AAA
TAFTYS
TAF AMD
KTYS 270606Z 2706/2806 24008KT P6SM -SHRA BKN050 OVC100
      TEMPO 2706/2709 24010KT 4SM -RA BR BKN015 OVC025
     FM270900 26009KT P6SM BKN025
     FM271300 31010G17KT P6SM BKN025
     FM271700 32010G17KT P6SM BKN035
     FM280000 34006KT P6SM BKN035=



000
FTUS44 KMRX 270606 AAA
TAFTYS
TAF AMD
KTYS 270606Z 2706/2806 24008KT P6SM -SHRA BKN050 OVC100
      TEMPO 2706/2709 24010KT 4SM -RA BR BKN015 OVC025
     FM270900 26009KT P6SM BKN025
     FM271300 31010G17KT P6SM BKN025
     FM271700 32010G17KT P6SM BKN035
     FM280000 34006KT P6SM BKN035=



000
FTUS44 KMRX 270534
TAFTYS
TAF
KTYS 270534Z 2706/2806 24008KT P6SM -SHRA BKN050 OVC100
     FM270830 26009KT P6SM BKN025
     FM271300 31010G17KT P6SM BKN025
     FM271700 32010G17KT P6SM BKN035
     FM280000 34006KT P6SM BKN035=



000
FTUS44 KMRX 270534
TAFCHA
TAF
KCHA 270534Z 2706/2806 26010KT P6SM SCT035
     FM271200 32010KT P6SM BKN035
     FM272200 34008KT P6SM SCT040=



000
FTUS44 KMRX 270534
TAFTRI
TAF
KTRI 270534Z 2706/2806 VRB03KT P6SM -RA BKN040 OVC100
     FM270930 26005KT 4SM -RASN BKN025 OVC050
     FM271500 28010G17KT P6SM BKN035
     FM280000 28007KT P6SM BKN035=



000
FTUS44 KMRX 270534
TAFTYS
TAF
KTYS 270534Z 2706/2806 24008KT P6SM -SHRA BKN050 OVC100
     FM270830 26009KT P6SM BKN025
     FM271300 31010G17KT P6SM BKN025
     FM271700 32010G17KT P6SM BKN035
     FM280000 34006KT P6SM BKN035=



000
FTUS44 KMRX 270534
TAFCHA
TAF
KCHA 270534Z 2706/2806 26010KT P6SM SCT035
     FM271200 32010KT P6SM BKN035
     FM272200 34008KT P6SM SCT040=



000
FTUS44 KMRX 270534
TAFTRI
TAF
KTRI 270534Z 2706/2806 VRB03KT P6SM -RA BKN040 OVC100
     FM270930 26005KT 4SM -RASN BKN025 OVC050
     FM271500 28010G17KT P6SM BKN035
     FM280000 28007KT P6SM BKN035=



000
FTUS44 KMRX 262320
TAFTRI
TAF
KTRI 262320Z 2700/2724 VRB03KT P6SM SCT060 BKN120
     FM270800 VRB03KT P6SM -RA BKN040 OVC100
     FM270930 26005KT 4SM -RASN BKN025 OVC050
     FM271400 28010G17KT P6SM BKN035=



000
FTUS44 KMRX 262320
TAFCHA
TAF
KCHA 262320Z 2700/2724 21006KT P6SM VCSH BKN060 OVC120
     FM270500 28010KT P6SM BKN035
     FM271500 32010KT P6SM BKN040
     FM272100 34009KT P6SM SCT045=



000
FTUS44 KMRX 262320
TAFTRI
TAF
KTRI 262320Z 2700/2724 VRB03KT P6SM SCT060 BKN120
     FM270800 VRB03KT P6SM -RA BKN040 OVC100
     FM270930 26005KT 4SM -RASN BKN025 OVC050
     FM271400 28010G17KT P6SM BKN035=



000
FTUS44 KMRX 262320
TAFCHA
TAF
KCHA 262320Z 2700/2724 21006KT P6SM VCSH BKN060 OVC120
     FM270500 28010KT P6SM BKN035
     FM271500 32010KT P6SM BKN040
     FM272100 34009KT P6SM SCT045=



000
FTUS44 KMRX 262320
TAFTYS
TAF
KTYS 262320Z 2700/2724 24007KT P6SM SCT060 BKN120
     FM270400 24007KT P6SM -SHRA BKN050 OVC100
     FM270830 26010G17KT P6SM BKN025
     FM271500 31010G17KT P6SM BKN035=



000
FTUS44 KMRX 262320
TAFTYS
TAF
KTYS 262320Z 2700/2724 24007KT P6SM SCT060 BKN120
     FM270400 24007KT P6SM -SHRA BKN050 OVC100
     FM270830 26010G17KT P6SM BKN025
     FM271500 31010G17KT P6SM BKN035=



000
FTUS44 KMRX 262030 AAB
TAFTRI
TAF AMD
KTRI 262030Z 2621/2718 26005KT P6SM BKN025
     FM270300 22003KT P6SM SCT020 BKN080
     FM270700 25003KT 5SM -RA BR BKN030
     FM270900 00000KT 2SM -SN BR SCT005 OVC010
      TEMPO 2709/2713 1/2SM SN OVC004
     FM271300 29010KT P6SM OVC015
     FM271600 29010KT P6SM BKN020=



000
FTUS44 KMRX 262030 AAB
TAFTRI
TAF AMD
KTRI 262030Z 2621/2718 26005KT P6SM BKN025
     FM270300 22003KT P6SM SCT020 BKN080
     FM270700 25003KT 5SM -RA BR BKN030
     FM270900 00000KT 2SM -SN BR SCT005 OVC010
      TEMPO 2709/2713 1/2SM SN OVC004
     FM271300 29010KT P6SM OVC015
     FM271600 29010KT P6SM BKN020=



000
FTUS44 KMRX 261929 AAA
TAFTRI
TAF AMD
KTRI 261929Z 2619/2718 29007KT P6SM OVC035
     FM270300 22003KT P6SM SCT020 BKN080
     FM270700 25003KT 5SM -RA BR BKN030
     FM270900 00000KT 2SM -SN BR SCT005 OVC010
      TEMPO 2709/2713 1/2SM SN OVC004
     FM271300 29010KT P6SM OVC015
     FM271600 29010KT P6SM BKN020=



000
FTUS44 KMRX 261733
TAFTRI
TAF
KTRI 261733Z 2618/2718 00000KT P6SM OVC012
     FM262100 27005KT P6SM BKN020
     FM270300 22003KT P6SM SCT020 BKN080
     FM270700 25003KT 5SM -RA BR BKN030
     FM270900 00000KT 2SM -SN BR SCT005 OVC010
      TEMPO 2709/2713 1/2SM SN OVC004
     FM271300 29010KT P6SM OVC015
     FM271600 29010KT P6SM BKN020=



000
FTUS44 KMRX 261733
TAFCHA
TAF
KCHA 261733Z 2618/2718 25005KT P6SM SCT200
     FM262200 20005KT P6SM BKN120
     FM270100 18005KT P6SM OVC060
     FM270400 27009KT P6SM -RA OVC025
     FM270800 29010KT P6SM BKN015
     FM271300 31010KT P6SM BKN025=



000
FTUS44 KMRX 261733
TAFTYS
TAF
KTYS 261733Z 2618/2718 24008KT P6SM SCT035
     FM262200 22005KT P6SM BKN100
     FM270300 22006KT P6SM -RA OVC040
     FM270800 24010KT P6SM OVC015
      TEMPO 2709/2713 6SM -RA OVC020
     FM271300 29008KT P6SM OVC015=



000
FTUS44 KMRX 261733
TAFTRI
TAF
KTRI 261733Z 2618/2718 00000KT P6SM OVC012
     FM262100 27005KT P6SM BKN020
     FM270300 22003KT P6SM SCT020 BKN080
     FM270700 25003KT 5SM -RA BR BKN030
     FM270900 00000KT 2SM -SN BR SCT005 OVC010
      TEMPO 2709/2713 1/2SM SN OVC004
     FM271300 29010KT P6SM OVC015
     FM271600 29010KT P6SM BKN020=



000
FTUS44 KMRX 261733
TAFCHA
TAF
KCHA 261733Z 2618/2718 25005KT P6SM SCT200
     FM262200 20005KT P6SM BKN120
     FM270100 18005KT P6SM OVC060
     FM270400 27009KT P6SM -RA OVC025
     FM270800 29010KT P6SM BKN015
     FM271300 31010KT P6SM BKN025=



000
FTUS44 KMRX 261733
TAFTYS
TAF
KTYS 261733Z 2618/2718 24008KT P6SM SCT035
     FM262200 22005KT P6SM BKN100
     FM270300 22006KT P6SM -RA OVC040
     FM270800 24010KT P6SM OVC015
      TEMPO 2709/2713 6SM -RA OVC020
     FM271300 29008KT P6SM OVC015=



000
FTUS44 KMRX 261638 AAB
TAFTRI
TAF AMD
KTRI 261638Z 2617/2712 00000KT P6SM BKN012
     FM262000 25007KT P6SM SCT025
     FM270000 21003KT P6SM SCT030 BKN080
     FM270500 VRB03KT 5SM -RA BR BKN030 OVC060
     FM270800 00000KT 3SM -SN BR SCT005 OVC015=



000
FTUS44 KMRX 261638 AAB
TAFTRI
TAF AMD
KTRI 261638Z 2617/2712 00000KT P6SM BKN012
     FM262000 25007KT P6SM SCT025
     FM270000 21003KT P6SM SCT030 BKN080
     FM270500 VRB03KT 5SM -RA BR BKN030 OVC060
     FM270800 00000KT 3SM -SN BR SCT005 OVC015=



000
FTUS44 KMRX 261542 AAA
TAFTRI
TAF AMD
KTRI 261542Z 2616/2712 00000KT P6SM SCT015 BKN035
     FM262000 25007KT P6SM SCT025
     FM270000 21003KT P6SM SCT030 BKN080
     FM270500 VRB03KT 5SM -RA BR BKN030 OVC060
     FM270800 00000KT 3SM -SN BR SCT005 OVC015=



000
FTUS44 KMRX 261542 AAA
TAFTRI
TAF AMD
KTRI 261542Z 2616/2712 00000KT P6SM SCT015 BKN035
     FM262000 25007KT P6SM SCT025
     FM270000 21003KT P6SM SCT030 BKN080
     FM270500 VRB03KT 5SM -RA BR BKN030 OVC060
     FM270800 00000KT 3SM -SN BR SCT005 OVC015=



000
FTUS44 KMRX 261122
TAFCHA
TAF
KCHA 261122Z 2612/2712 33005KT P6SM BKN100
     FM261400 26006KT P6SM SCT100
     FM262000 20006KT P6SM BKN120
     FM270200 18005KT 6SM -RA OVC050
     FM270800 29010KT P6SM BKN025=



000
FTUS44 KMRX 261122
TAFTYS
TAF
KTYS 261122Z 2612/2712 VRB04KT P6SM -RA SCT060 OVC100
     FM261400 VRB03KT P6SM FEW050 SCT100
     FM262000 22005KT P6SM BKN100
     FM270200 22005KT P6SM -RA OVC040
     FM270700 24012KT 6SM -RA OVC020=



000
FTUS44 KMRX 261122
TAFTRI
TAF
KTRI 261122Z 2612/2712 00000KT 6SM -RA OVC025
     FM261500 28004KT 4SM -RA BR OVC015
     FM262000 25007KT P6SM BKN025
     FM270000 21003KT P6SM SCT030 BKN080
     FM270500 VRB03KT 5SM -RA BR BKN030 OVC060
     FM270800 00000KT 3SM -SN BR SCT005 OVC015=



000
FTUS44 KMRX 261122
TAFCHA
TAF
KCHA 261122Z 2612/2712 33005KT P6SM BKN100
     FM261400 26006KT P6SM SCT100
     FM262000 20006KT P6SM BKN120
     FM270200 18005KT 6SM -RA OVC050
     FM270800 29010KT P6SM BKN025=



000
FTUS44 KMRX 261122
TAFTRI
TAF
KTRI 261122Z 2612/2712 00000KT 6SM -RA OVC025
     FM261500 28004KT 4SM -RA BR OVC015
     FM262000 25007KT P6SM BKN025
     FM270000 21003KT P6SM SCT030 BKN080
     FM270500 VRB03KT 5SM -RA BR BKN030 OVC060
     FM270800 00000KT 3SM -SN BR SCT005 OVC015=



000
FTUS44 KMRX 261122
TAFTYS
TAF
KTYS 261122Z 2612/2712 VRB04KT P6SM -RA SCT060 OVC100
     FM261400 VRB03KT P6SM FEW050 SCT100
     FM262000 22005KT P6SM BKN100
     FM270200 22005KT P6SM -RA OVC040
     FM270700 24012KT 6SM -RA OVC020=



000
FTUS44 KMRX 261031 AAB
TAFTRI
TAF AMD
KTRI 261031Z 2611/2706 06003KT 6SM -RA OVC035
     FM261500 VRB03KT 4SM -RA OVC010
     FM262000 21003KT P6SM BKN020
     FM270000 21003KT P6SM SCT030 BKN080=



000
FTUS44 KMRX 261031 AAB
TAFTRI
TAF AMD
KTRI 261031Z 2611/2706 06003KT 6SM -RA OVC035
     FM261500 VRB03KT 4SM -RA OVC010
     FM262000 21003KT P6SM BKN020
     FM270000 21003KT P6SM SCT030 BKN080=



000
FTUS44 KMRX 260937 AAA
TAFTRI
TAF AMD
KTRI 260937Z 2610/2706 06003KT 6SM -RA OVC035
     FM261100 02003KT 1SM RA SCT005 OVC010
     FM261500 VRB03KT 4SM -RA OVC010
     FM262000 21003KT P6SM BKN020
     FM270000 21003KT P6SM SCT030 BKN080=



000
FTUS44 KMRX 260937 AAA
TAFTRI
TAF AMD
KTRI 260937Z 2610/2706 06003KT 6SM -RA OVC035
     FM261100 02003KT 1SM RA SCT005 OVC010
     FM261500 VRB03KT 4SM -RA OVC010
     FM262000 21003KT P6SM BKN020
     FM270000 21003KT P6SM SCT030 BKN080=



000
FTUS44 KMRX 260936 AAA
TAFTYS
TAF AMD
KTYS 260936Z 2610/2706 35007KT P6SM -RA OVC090
     FM261400 VRB03KT P6SM SCT040 SCT100
     FM262000 22005KT P6SM BKN100
     FM270200 22005KT 6SM -RA OVC040=



000
FTUS44 KMRX 260936 AAA
TAFTYS
TAF AMD
KTYS 260936Z 2610/2706 35007KT P6SM -RA OVC090
     FM261400 VRB03KT P6SM SCT040 SCT100
     FM262000 22005KT P6SM BKN100
     FM270200 22005KT 6SM -RA OVC040=



000
FTUS44 KMRX 260523
TAFTRI
TAF
KTRI 260523Z 2606/2706 09003KT P6SM OVC100
     FM260800 06003KT 3SM -RA OVC035
     FM261100 02003KT 1SM RA SCT005 OVC010
     FM261500 VRB03KT 4SM -RA OVC010
     FM262000 21003KT P6SM BKN020
     FM270000 21003KT P6SM SCT030 BKN080=



000
FTUS44 KMRX 260523
TAFCHA
TAF
KCHA 260523Z 2606/2706 35005KT P6SM OVC150
     FM260800 34003KT P6SM -RA OVC080
     FM261000 30003KT P6SM SCT080
     FM261400 26006KT P6SM SCT120
     FM262000 20006KT P6SM BKN120
     FM270200 18005KT 6SM -RA OVC050=



000
FTUS44 KMRX 260523
TAFTYS
TAF
KTYS 260523Z 2606/2706 35007KT P6SM -RA OVC120
     FM260800 35003KT 4SM -RA OVC050
     FM261400 VRB03KT P6SM SCT040 SCT100
     FM262000 22005KT P6SM BKN100
     FM270200 22005KT 6SM -RA OVC040=



000
FTUS44 KMRX 260523
TAFCHA
TAF
KCHA 260523Z 2606/2706 35005KT P6SM OVC150
     FM260800 34003KT P6SM -RA OVC080
     FM261000 30003KT P6SM SCT080
     FM261400 26006KT P6SM SCT120
     FM262000 20006KT P6SM BKN120
     FM270200 18005KT 6SM -RA OVC050=



000
FTUS44 KMRX 260523
TAFTYS
TAF
KTYS 260523Z 2606/2706 35007KT P6SM -RA OVC120
     FM260800 35003KT 4SM -RA OVC050
     FM261400 VRB03KT P6SM SCT040 SCT100
     FM262000 22005KT P6SM BKN100
     FM270200 22005KT 6SM -RA OVC040=



000
FTUS44 KMRX 260523
TAFTRI
TAF
KTRI 260523Z 2606/2706 09003KT P6SM OVC100
     FM260800 06003KT 3SM -RA OVC035
     FM261100 02003KT 1SM RA SCT005 OVC010
     FM261500 VRB03KT 4SM -RA OVC010
     FM262000 21003KT P6SM BKN020
     FM270000 21003KT P6SM SCT030 BKN080=



000
FTUS44 KMRX 252320
TAFCHA
TAF
KCHA 252320Z 2600/2624 35006KT P6SM BKN150
     FM260200 35003KT P6SM OVC100
     FM260500 34003KT 6SM -RA OVC060
     FM261000 30003KT P6SM SCT080
     FM261400 26006KT P6SM SCT120
     FM262000 20006KT P6SM BKN120=



000
FTUS44 KMRX 252320
TAFTYS
TAF
KTYS 252320Z 2600/2624 02003KT P6SM BKN150
     FM260300 02003KT P6SM OVC100
     FM260600 01003KT 4SM -RA OVC040
     FM261200 VRB03KT P6SM SCT035 SCT120
     FM262000 22005KT P6SM BKN120=



000
FTUS44 KMRX 252320
TAFCHA
TAF
KCHA 252320Z 2600/2624 35006KT P6SM BKN150
     FM260200 35003KT P6SM OVC100
     FM260500 34003KT 6SM -RA OVC060
     FM261000 30003KT P6SM SCT080
     FM261400 26006KT P6SM SCT120
     FM262000 20006KT P6SM BKN120=



000
FTUS44 KMRX 252320
TAFTYS
TAF
KTYS 252320Z 2600/2624 02003KT P6SM BKN150
     FM260300 02003KT P6SM OVC100
     FM260600 01003KT 4SM -RA OVC040
     FM261200 VRB03KT P6SM SCT035 SCT120
     FM262000 22005KT P6SM BKN120=



000
FTUS44 KMRX 252320
TAFTRI
TAF
KTRI 252320Z 2600/2624 36003KT P6SM SCT150
     FM260400 36003KT P6SM OVC100
     FM260800 34003KT 3SM -RA OVC035
     FM261100 32003KT 1SM RA SCT005 OVC010
     FM261400 VRB03KT 4SM -RA OVC020
     FM261700 21003KT P6SM BKN035=



000
FTUS44 KMRX 252320
TAFTRI
TAF
KTRI 252320Z 2600/2624 36003KT P6SM SCT150
     FM260400 36003KT P6SM OVC100
     FM260800 34003KT 3SM -RA OVC035
     FM261100 32003KT 1SM RA SCT005 OVC010
     FM261400 VRB03KT 4SM -RA OVC020
     FM261700 21003KT P6SM BKN035=



000
FTUS44 KMRX 251729
TAFCHA
TAF
KCHA 251729Z 2518/2618 36006KT P6SM SCT120 BKN200
     FM260300 36004KT P6SM VCSH SCT070 OVC100
     FM260600 36004KT 5SM -RA BR BKN025 OVC060
     FM261100 VRB04KT P6SM SCT030 BKN150=



000
FTUS44 KMRX 251729
TAFTRI
TAF
KTRI 251729Z 2518/2618 VRB04KT P6SM SCT250
     FM260000 VRB03KT P6SM SCT100 OVC150
     FM260500 VRB03KT P6SM VCSH SCT070 OVC100
     FM260800 VRB03KT 3SM -RA BR SCT009 OVC020
     FM261100 VRB02KT 1SM -RASN BR BKN007 OVC015
     FM261600 VRB03KT 5SM BR BKN015 OVC030=



000
FTUS44 KMRX 251729
TAFTYS
TAF
KTYS 251729Z 2518/2618 34005KT P6SM SCT120 BKN200
     FM260300 01004KT P6SM VCSH SCT070 OVC100
     FM260700 02004KT 3SM -RA BR SCT009 OVC020
     FM261300 VRB04KT P6SM BKN025=



000
FTUS44 KMRX 251729
TAFTYS
TAF
KTYS 251729Z 2518/2618 34005KT P6SM SCT120 BKN200
     FM260300 01004KT P6SM VCSH SCT070 OVC100
     FM260700 02004KT 3SM -RA BR SCT009 OVC020
     FM261300 VRB04KT P6SM BKN025=



000
FTUS44 KMRX 251729
TAFTRI
TAF
KTRI 251729Z 2518/2618 VRB04KT P6SM SCT250
     FM260000 VRB03KT P6SM SCT100 OVC150
     FM260500 VRB03KT P6SM VCSH SCT070 OVC100
     FM260800 VRB03KT 3SM -RA BR SCT009 OVC020
     FM261100 VRB02KT 1SM -RASN BR BKN007 OVC015
     FM261600 VRB03KT 5SM BR BKN015 OVC030=



000
FTUS44 KMRX 251729
TAFCHA
TAF
KCHA 251729Z 2518/2618 36006KT P6SM SCT120 BKN200
     FM260300 36004KT P6SM VCSH SCT070 OVC100
     FM260600 36004KT 5SM -RA BR BKN025 OVC060
     FM261100 VRB04KT P6SM SCT030 BKN150=



000
FTUS44 KMRX 251122
TAFCHA
TAF
KCHA 251122Z 2512/2612 VRB03KT P6SM BKN250
     FM251500 36006KT P6SM SCT100 BKN250
     FM260000 36005KT P6SM SCT050 BKN100
     FM260200 36005KT 6SM -RA BKN050
     FM260600 01004KT 4SM -RA BR BKN025 OVC050=



000
FTUS44 KMRX 251122
TAFTYS
TAF
KTYS 251122Z 2512/2612 VRB03KT P6SM BKN250
     FM251500 26005KT P6SM SCT120 BKN250
     FM260100 36005KT P6SM SCT050 BKN100
     FM260300 36005KT 6SM -RA BKN050
     FM260700 03005KT 5SM -RA BR BKN025 OVC050=



000
FTUS44 KMRX 251122
TAFTRI
TAF
KTRI 251122Z 2512/2612 26005KT P6SM FEW060 BKN250
     FM260200 36005KT P6SM BKN100
     FM260500 VRB03KT 6SM -RA BKN050
     FM260800 VRB03KT 5SM -RA BR BKN030 OVC060=



000
FTUS44 KMRX 251122
TAFTRI
TAF
KTRI 251122Z 2512/2612 26005KT P6SM FEW060 BKN250
     FM260200 36005KT P6SM BKN100
     FM260500 VRB03KT 6SM -RA BKN050
     FM260800 VRB03KT 5SM -RA BR BKN030 OVC060=



000
FTUS44 KMRX 251122
TAFTYS
TAF
KTYS 251122Z 2512/2612 VRB03KT P6SM BKN250
     FM251500 26005KT P6SM SCT120 BKN250
     FM260100 36005KT P6SM SCT050 BKN100
     FM260300 36005KT 6SM -RA BKN050
     FM260700 03005KT 5SM -RA BR BKN025 OVC050=



000
FTUS44 KMRX 251122
TAFCHA
TAF
KCHA 251122Z 2512/2612 VRB03KT P6SM BKN250
     FM251500 36006KT P6SM SCT100 BKN250
     FM260000 36005KT P6SM SCT050 BKN100
     FM260200 36005KT 6SM -RA BKN050
     FM260600 01004KT 4SM -RA BR BKN025 OVC050=



    US Dept of Commerce
    National Oceanic and Atmospheric Administration
    National Weather Service
    1325 East West Highway
    Silver Spring, MD 20910
    Page Author: NWS Internet Services Team
Disclaimer
Information Quality
Credits
Glossary
Privacy Policy
Freedom of Information Act (FOIA)
About Us
Career Opportunities